Hauptseite
METAR-TAF:

METAR-TAF

Flughäfen :

Flughafen Tunis

Tunis, Tunesien

Breite: 36-50N, Länge: 010-14E, Höhe: 3 m

Beobachtung

Neuester Wetterbericht von vor 34 Minuten, um 20:30 UTC
Wind 7 kt aus Süd/Südost
Temperatur 16°C
Luftfeuchtigkeit 59%
Luftdruck 1006 hPa
Sichtweite 10 km oder mehr
Leicht bewölkt in der Höhe von 2600 ft

METAR: DTTA 142030Z 16007KT 9999 FEW026 16/08 Q1006

Zeit: 22:04 (21:04 UTC)

Prognose

Neuester Wetterbericht von vor 4 Stunden und 4 Minuten, um 17:00 UTC
Gültige Prognose vom 14 um 18 UTC bis 15 um 18 UTC
Wind 6 kt aus Ost/Südost
Sichtweite 10 km oder mehr
Leicht bewölkt in der Höhe von 3000 ft
Übergehend zu
vom 14 um 19 UTC bis 14 um 21 UTC
Wind 10 kt aus Süd
Übergehend zu
vom 15 um 15 UTC bis 15 um 17 UTC
Wind 6 kt aus Nord

TAF: DTTA 141700Z 1418/1518 12006KT 9999 FEW030 BECMG 1419/1421 19010KT BECMG 1515/1517 35006KT

Wetterbeobachtungen und Prognosen von mehr als 4000 Flughäfen (METAR und TAF Bericht).

Die verfügbaren Stationen werden durch gelbe und rote Markierungen auf der Karte dargestellt.

Führen Sie die Maus auf sie, um den Namen der Station zu sehen.

Darauf klicken, um die Beobachtung von Wetterbeobachtungen und Prognosen zu sehen.

Um die Karte zu ändern : klicken Sie auf den grünen Tasten mit einem schwarzen Kreuz Zum Vergrößern, auf den grünen Button mit einem Gedankenstrich zu verkleinern, oder auf die grünen Pfeile für benachbarte Karten.


METAR-TAF: